sensor_id;sensor_type;location;lat;lon;timestamp;pressure;altitude;pressure_sealevel;temperature;humidity
66430;BME280;53242;51.694;10.006;2022-10-23T00:00:35;99692.59;;;13.38;82.78
66430;BME280;53242;51.694;10.006;2022-10-23T00:02:58;99695.66;;;13.48;82.26
66430;BME280;53242;51.694;10.006;2022-10-23T00:05:21;99693.22;;;13.40;82.26
66430;BME280;53242;51.694;10.006;2022-10-23T00:07:44;99687.28;;;13.44;82.41
66430;BME280;53242;51.694;10.006;2022-10-23T00:10:08;99695.84;;;13.53;81.94
66430;BME280;53242;51.694;10.006;2022-10-23T00:12:30;99696.84;;;13.52;81.88
66430;BME280;53242;51.694;10.006;2022-10-23T00:14:53;99696.25;;;13.50;82.13
66430;BME280;53242;51.694;10.006;2022-10-23T00:17:15;99683.22;;;13.42;82.55
66430;BME280;53242;51.694;10.006;2022-10-23T00:19:38;99681.78;;;13.39;82.58
66430;BME280;53242;51.694;10.006;2022-10-23T00:22:00;99688.72;;;13.47;82.29
66430;BME280;53242;51.694;10.006;2022-10-23T00:24:23;99679.53;;;13.43;82.37
66430;BME280;53242;51.694;10.006;2022-10-23T00:26:48;99677.13;;;13.28;82.63
66430;BME280;53242;51.694;10.006;2022-10-23T00:29:11;99687.28;;;13.44;82.00
66430;BME280;53242;51.694;10.006;2022-10-23T00:31:33;99682.19;;;13.36;82.44
66430;BME280;53242;51.694;10.006;2022-10-23T00:33:56;99679.97;;;13.20;83.20
66430;BME280;53242;51.694;10.006;2022-10-23T00:36:20;99683.06;;;13.16;83.05
66430;BME280;53242;51.694;10.006;2022-10-23T00:38:43;99686.91;;;13.07;83.64
66430;BME280;53242;51.694;10.006;2022-10-23T00:41:07;99689.78;;;13.19;83.50
66430;BME280;53242;51.694;10.006;2022-10-23T00:43:30;99688.16;;;12.91;84.33
66430;BME280;53242;51.694;10.006;2022-10-23T00:45:53;99684.91;;;12.96;84.55
66430;BME280;53242;51.694;10.006;2022-10-23T00:48:15;99683.88;;;13.04;84.12
66430;BME280;53242;51.694;10.006;2022-10-23T00:50:39;99681.81;;;13.06;84.45
66430;BME280;53242;51.694;10.006;2022-10-23T00:53:03;99680.22;;;13.11;83.91
66430;BME280;53242;51.694;10.006;2022-10-23T00:55:26;99681.63;;;13.07;83.75
66430;BME280;53242;51.694;10.006;2022-10-23T00:57:50;99683.25;;;13.08;84.26
66430;BME280;53242;51.694;10.006;2022-10-23T01:00:26;99681.81;;;13.12;84.12
66430;BME280;53242;51.694;10.006;2022-10-23T01:02:50;99684.09;;;12.95;84.75
66430;BME280;53242;51.694;10.006;2022-10-23T01:05:14;99685.13;;;13.01;84.33
66430;BME280;53242;51.694;10.006;2022-10-23T01:10:14;99687.97;;;13.06;84.82
66430;BME280;53242;51.694;10.006;2022-10-23T01:12:59;99683.47;;;13.07;84.94
66430;BME280;53242;51.694;10.006;2022-10-23T01:15:31;99679.59;;;13.03;85.26
66430;BME280;53242;51.694;10.006;2022-10-23T01:18:20;99674.72;;;13.06;84.49
66430;BME280;53242;51.694;10.006;2022-10-23T01:28:28;99665.72;;;13.07;85.38
66430;BME280;53242;51.694;10.006;2022-10-23T01:30:52;99661.66;;;13.11;84.70
66430;BME280;53242;51.694;10.006;2022-10-23T01:33:22;99654.09;;;13.08;85.04
66430;BME280;53242;51.694;10.006;2022-10-23T01:36:02;99654.50;;;13.19;84.89
66430;BME280;53242;51.694;10.006;2022-10-23T01:38:39;99648.19;;;13.20;84.34
66430;BME280;53242;51.694;10.006;2022-10-23T01:41:16;99647.38;;;13.06;84.92
66430;BME280;53242;51.694;10.006;2022-10-23T01:43:55;99647.16;;;13.07;85.11
66430;BME280;53242;51.694;10.006;2022-10-23T01:46:25;99637.22;;;13.03;84.83
66430;BME280;53242;51.694;10.006;2022-10-23T01:48:52;99638.84;;;12.97;85.14
66430;BME280;53242;51.694;10.006;2022-10-23T01:51:16;99645.97;;;12.96;85.82
66430;BME280;53242;51.694;10.006;2022-10-23T01:53:40;99639.06;;;12.89;86.64
66430;BME280;53242;51.694;10.006;2022-10-23T01:56:10;99643.56;;;12.88;85.87
66430;BME280;53242;51.694;10.006;2022-10-23T01:58:34;99645.16;;;12.89;86.12
66430;BME280;53242;51.694;10.006;2022-10-23T02:01:00;99654.34;;;12.87;86.67
66430;BME280;53242;51.694;10.006;2022-10-23T02:03:25;99649.66;;;12.89;85.94
66430;BME280;53242;51.694;10.006;2022-10-23T02:05:50;99647.00;;;12.89;86.10
66430;BME280;53242;51.694;10.006;2022-10-23T02:08:12;99649.88;;;12.87;86.12
66430;BME280;53242;51.694;10.006;2022-10-23T02:10:41;99642.34;;;12.91;86.56
66430;BME280;53242;51.694;10.006;2022-10-23T02:13:12;99633.34;;;12.85;86.19
66430;BME280;53242;51.694;10.006;2022-10-23T02:15:48;99634.59;;;12.96;85.66
66430;BME280;53242;51.694;10.006;2022-10-23T02:18:35;99636.81;;;12.99;85.14
66430;BME280;53242;51.694;10.006;2022-10-23T02:21:08;99636.00;;;12.98;85.66
66430;BME280;53242;51.694;10.006;2022-10-23T02:23:38;99637.63;;;12.93;85.44
66430;BME280;53242;51.694;10.006;2022-10-23T02:26:07;99636.59;;;12.94;85.41
66430;BME280;53242;51.694;10.006;2022-10-23T02:28:38;99642.72;;;12.88;85.89
66430;BME280;53242;51.694;10.006;2022-10-23T02:31:22;99642.13;;;12.86;85.92
66430;BME280;53242;51.694;10.006;2022-10-23T02:33:45;99645.38;;;12.81;86.54
66430;BME280;53242;51.694;10.006;2022-10-23T02:36:08;99642.72;;;12.88;85.65
66430;BME280;53242;51.694;10.006;2022-10-23T02:38:34;99639.28;;;12.80;86.03
66430;BME280;53242;51.694;10.006;2022-10-23T02:41:07;99632.78;;;12.83;86.20
66430;BME280;53242;51.694;10.006;2022-10-23T02:43:40;99631.53;;;12.86;85.59
66430;BME280;53242;51.694;10.006;2022-10-23T02:49:16;99625.44;;;12.72;86.98
66430;BME280;53242;51.694;10.006;2022-10-23T02:51:45;99619.31;;;12.71;86.83
66430;BME280;53242;51.694;10.006;2022-10-23T02:57:13;99618.09;;;12.67;87.20
66430;BME280;53242;51.694;10.006;2022-10-23T02:59:43;99616.47;;;12.66;87.20
66430;BME280;53242;51.694;10.006;2022-10-23T03:02:25;99605.28;;;12.64;87.56
66430;BME280;53242;51.694;10.006;2022-10-23T03:04:49;99617.91;;;12.62;87.23
66430;BME280;53242;51.694;10.006;2022-10-23T03:07:13;99612.00;;;12.60;87.14
66430;BME280;53242;51.694;10.006;2022-10-23T03:09:38;99608.53;;;12.59;87.57
66430;BME280;53242;51.694;10.006;2022-10-23T03:12:00;99603.66;;;12.56;87.49
66430;BME280;53242;51.694;10.006;2022-10-23T03:14:28;99603.03;;;12.61;87.21
66430;BME280;53242;51.694;10.006;2022-10-23T03:16:50;99594.88;;;12.56;87.80
66430;BME280;53242;51.694;10.006;2022-10-23T03:19:13;99601.22;;;12.55;87.60
66430;BME280;53242;51.694;10.006;2022-10-23T03:21:36;99601.41;;;12.53;87.77
66430;BME280;53242;51.694;10.006;2022-10-23T03:24:02;99599.97;;;12.44;87.96
66430;BME280;53242;51.694;10.006;2022-10-23T03:26:32;99604.06;;;12.46;87.72
66430;BME280;53242;51.694;10.006;2022-10-23T03:28:54;99596.94;;;12.40;88.00
66430;BME280;53242;51.694;10.006;2022-10-23T03:31:18;99598.97;;;12.31;88.76
66430;BME280;53242;51.694;10.006;2022-10-23T03:33:42;99597.75;;;12.34;88.37
66430;BME280;53242;51.694;10.006;2022-10-23T03:36:07;99594.91;;;12.36;87.87
66430;BME280;53242;51.694;10.006;2022-10-23T03:38:30;99600.41;;;12.34;88.45
66430;BME280;53242;51.694;10.006;2022-10-23T03:40:53;99593.28;;;12.34;88.17
66430;BME280;53242;51.694;10.006;2022-10-23T03:43:15;99591.44;;;12.35;88.16
66430;BME280;53242;51.694;10.006;2022-10-23T03:45:37;99585.75;;;12.31;88.34
66430;BME280;53242;51.694;10.006;2022-10-23T03:48:00;99591.84;;;12.32;88.58
66430;BME280;53242;51.694;10.006;2022-10-23T03:50:22;99586.75;;;12.24;88.96
66430;BME280;53242;51.694;10.006;2022-10-23T03:52:45;99583.06;;;12.25;88.82
66430;BME280;53242;51.694;10.006;2022-10-23T03:55:08;99591.84;;;12.25;89.06
66430;BME280;53242;51.694;10.006;2022-10-23T03:57:32;99585.72;;;12.25;88.53
66430;BME280;53242;51.694;10.006;2022-10-23T03:59:54;99585.13;;;12.23;88.62
66430;BME280;53242;51.694;10.006;2022-10-23T04:02:17;99583.69;;;12.20;88.97
66430;BME280;53242;51.694;10.006;2022-10-23T04:04:39;99582.28;;;12.24;89.39
66430;BME280;53242;51.694;10.006;2022-10-23T04:07:02;99589.81;;;12.21;89.02
66430;BME280;53242;51.694;10.006;2022-10-23T04:09:24;99586.56;;;12.25;88.48
66430;BME280;53242;51.694;10.006;2022-10-23T04:11:47;99589.59;;;12.22;88.61
66430;BME280;53242;51.694;10.006;2022-10-23T04:14:13;99591.22;;;12.23;89.10
66430;BME280;53242;51.694;10.006;2022-10-23T04:16:35;99584.28;;;12.22;89.21
66430;BME280;53242;51.694;10.006;2022-10-23T04:18:57;99590.00;;;12.26;89.19
66430;BME280;53242;51.694;10.006;2022-10-23T04:21:20;99586.56;;;12.25;89.13
66430;BME280;53242;51.694;10.006;2022-10-23T04:23:42;99581.47;;;12.24;89.07
66430;BME280;53242;51.694;10.006;2022-10-23T04:26:11;99575.13;;;12.18;89.30
66430;BME280;53242;51.694;10.006;2022-10-23T04:28:33;99582.88;;;12.20;89.09
66430;BME280;53242;51.694;10.006;2022-10-23T04:30:56;99575.34;;;12.23;88.75
66430;BME280;53242;51.694;10.006;2022-10-23T04:33:19;99583.69;;;12.20;89.07
66430;BME280;53242;51.694;10.006;2022-10-23T04:35:44;99579.41;;;12.19;89.04
66430;BME280;53242;51.694;10.006;2022-10-23T04:38:07;99571.28;;;12.21;88.90
66430;BME280;53242;51.694;10.006;2022-10-23T04:40:29;99566.41;;;12.17;89.06
66430;BME280;53242;51.694;10.006;2022-10-23T04:42:52;99571.47;;;12.19;88.94
66430;BME280;53242;51.694;10.006;2022-10-23T04:45:14;99573.94;;;12.21;89.10
66430;BME280;53242;51.694;10.006;2022-10-23T04:47:37;99578.63;;;12.19;89.19
66430;BME280;53242;51.694;10.006;2022-10-23T04:50:00;99576.16;;;12.17;89.30
66430;BME280;53242;51.694;10.006;2022-10-23T04:52:53;99574.94;;;12.20;89.26
66430;BME280;53242;51.694;10.006;2022-10-23T04:55:34;99566.41;;;12.17;89.16
66430;BME280;53242;51.694;10.006;2022-10-23T04:58:05;99573.53;;;12.24;88.56
66430;BME280;53242;51.694;10.006;2022-10-23T05:00:28;99565.59;;;12.24;88.71
66430;BME280;53242;51.694;10.006;2022-10-23T05:02:52;99564.97;;;12.22;89.02
66430;BME280;53242;51.694;10.006;2022-10-23T05:05:16;99566.81;;;12.21;88.84
66430;BME280;53242;51.694;10.006;2022-10-23T05:07:56;99563.75;;;12.17;89.02
66430;BME280;53242;51.694;10.006;2022-10-23T05:10:24;99558.88;;;12.28;88.42
66430;BME280;53242;51.694;10.006;2022-10-23T05:12:56;99557.25;;;12.27;88.51
66430;BME280;53242;51.694;10.006;2022-10-23T05:15:19;99558.66;;;12.23;88.58
66430;BME280;53242;51.694;10.006;2022-10-23T05:17:42;99557.44;;;12.25;88.68
66430;BME280;53242;51.694;10.006;2022-10-23T05:20:14;99560.09;;;12.32;88.17
66430;BME280;53242;51.694;10.006;2022-10-23T05:22:40;99552.97;;;12.26;88.29
66430;BME280;53242;51.694;10.006;2022-10-23T05:25:06;99550.31;;;12.26;88.01
66430;BME280;53242;51.694;10.006;2022-10-23T05:27:29;99551.75;;;12.22;88.20
66430;BME280;53242;51.694;10.006;2022-10-23T05:29:52;99558.47;;;12.17;88.36
66430;BME280;53242;51.694;10.006;2022-10-23T05:32:19;99565.78;;;12.15;88.38
66430;BME280;53242;51.694;10.006;2022-10-23T05:34:42;99551.34;;;12.11;88.58
66430;BME280;53242;51.694;10.006;2022-10-23T05:37:08;99552.97;;;12.12;88.44
66430;BME280;53242;51.694;10.006;2022-10-23T05:39:33;99557.47;;;12.19;88.07
66430;BME280;53242;51.694;10.006;2022-10-23T05:41:57;99545.25;;;12.17;87.92
66430;BME280;53242;51.694;10.006;2022-10-23T05:44:21;99550.91;;;12.14;87.88
66430;BME280;53242;51.694;10.006;2022-10-23T05:47:12;99557.25;;;12.20;87.70
66430;BME280;53242;51.694;10.006;2022-10-23T05:49:54;99552.13;;;12.12;88.10
66430;BME280;53242;51.694;10.006;2022-10-23T05:52:16;99557.03;;;12.15;87.93
66430;BME280;53242;51.694;10.006;2022-10-23T05:54:54;99557.03;;;12.15;87.82
66430;BME280;53242;51.694;10.006;2022-10-23T05:57:37;99546.47;;;12.15;88.24
66430;BME280;53242;51.694;10.006;2022-10-23T06:00:04;99547.69;;;12.12;88.05
66430;BME280;53242;51.694;10.006;2022-10-23T06:02:44;99538.31;;;12.10;88.63
66430;BME280;53242;51.694;10.006;2022-10-23T06:05:28;99534.84;;;12.09;88.53
66430;BME280;53242;51.694;10.006;2022-10-23T06:08:09;99536.47;;;12.04;88.72
66430;BME280;53242;51.694;10.006;2022-10-23T06:10:32;99538.28;;;11.96;88.63
66430;BME280;53242;51.694;10.006;2022-10-23T06:12:58;99536.28;;;11.98;88.96
66430;BME280;53242;51.694;10.006;2022-10-23T06:15:22;99550.72;;;11.96;88.87
66430;BME280;53242;51.694;10.006;2022-10-23T06:18:03;99558.81;;;11.94;88.86
66430;BME280;53242;51.694;10.006;2022-10-23T06:20:29;99551.34;;;11.98;88.37
66430;BME280;53242;51.694;10.006;2022-10-23T06:23:02;99553.16;;;11.97;88.67
66430;BME280;53242;51.694;10.006;2022-10-23T06:25:50;99552.56;;;12.02;88.22
66430;BME280;53242;51.694;10.006;2022-10-23T06:28:13;99564.78;;;12.16;87.46
66430;BME280;53242;51.694;10.006;2022-10-23T06:30:38;99559.88;;;12.20;87.28
66430;BME280;53242;51.694;10.006;2022-10-23T06:33:00;99550.94;;;12.21;86.89
66430;BME280;53242;51.694;10.006;2022-10-23T06:35:22;99567.03;;;12.26;86.89
66430;BME280;53242;51.694;10.006;2022-10-23T06:37:45;99559.06;;;12.20;87.06
66430;BME280;53242;51.694;10.006;2022-10-23T06:40:13;99550.94;;;12.28;86.37
66430;BME280;53242;51.694;10.006;2022-10-23T06:42:57;99537.09;;;12.12;85.97
66430;BME280;53242;51.694;10.006;2022-10-23T06:45:38;99539.94;;;12.24;86.65
66430;BME280;53242;51.694;10.006;2022-10-23T06:48:10;99540.75;;;12.18;86.72
66430;BME280;53242;51.694;10.006;2022-10-23T06:50:50;99548.09;;;12.23;86.71
66430;BME280;53242;51.694;10.006;2022-10-23T06:53:16;99548.50;;;12.26;86.74
66430;BME280;53242;51.694;10.006;2022-10-23T06:55:44;99537.69;;;12.14;86.96
66430;BME280;53242;51.694;10.006;2022-10-23T06:58:07;99533.00;;;12.23;86.66
66430;BME280;53242;51.694;10.006;2022-10-23T07:00:38;99536.47;;;12.17;86.65
66430;BME280;53242;51.694;10.006;2022-10-23T07:03:01;99526.09;;;12.15;86.53
66430;BME280;53242;51.694;10.006;2022-10-23T07:05:25;99512.66;;;12.10;86.72
66430;BME280;53242;51.694;10.006;2022-10-23T07:07:48;99502.69;;;11.99;87.36
66430;BME280;53242;51.694;10.006;2022-10-23T07:10:16;99507.97;;;11.99;87.26
66430;BME280;53242;51.694;10.006;2022-10-23T07:12:42;99511.03;;;11.96;87.35
66430;BME280;53242;51.694;10.006;2022-10-23T07:15:25;99509.59;;;12.07;87.03
66430;BME280;53242;51.694;10.006;2022-10-23T07:17:48;99515.72;;;12.00;87.41
66430;BME280;53242;51.694;10.006;2022-10-23T07:20:11;99520.41;;;12.05;87.36
66430;BME280;53242;51.694;10.006;2022-10-23T07:22:33;99506.56;;;12.03;87.89
66430;BME280;53242;51.694;10.006;2022-10-23T07:25:06;99512.44;;;12.12;87.60
66430;BME280;53242;51.694;10.006;2022-10-23T07:27:35;99504.94;;;12.15;87.88
66430;BME280;53242;51.694;10.006;2022-10-23T07:30:01;99513.47;;;12.24;87.34
66430;BME280;53242;51.694;10.006;2022-10-23T07:32:29;99511.84;;;12.37;86.72
66430;BME280;53242;51.694;10.006;2022-10-23T07:35:12;99516.13;;;12.44;86.31
66430;BME280;53242;51.694;10.006;2022-10-23T07:37:40;99515.28;;;12.57;85.93
66430;BME280;53242;51.694;10.006;2022-10-23T07:40:04;99515.84;;;12.66;85.78
66430;BME280;53242;51.694;10.006;2022-10-23T07:42:31;99513.84;;;12.61;86.31
66430;BME280;53242;51.694;10.006;2022-10-23T07:44:53;99519.09;;;12.75;85.37
66430;BME280;53242;51.694;10.006;2022-10-23T07:47:17;99509.31;;;12.75;85.64
66430;BME280;53242;51.694;10.006;2022-10-23T07:49:43;99512.59;;;12.71;85.58
66430;BME280;53242;51.694;10.006;2022-10-23T07:52:06;99519.69;;;12.83;85.40
66430;BME280;53242;51.694;10.006;2022-10-23T07:54:50;99515.03;;;12.72;85.48
66430;BME280;53242;51.694;10.006;2022-10-23T07:57:16;99524.56;;;12.87;85.14
66430;BME280;53242;51.694;10.006;2022-10-23T07:59:45;99523.34;;;12.82;85.10
66430;BME280;53242;51.694;10.006;2022-10-23T08:02:13;99533.88;;;13.03;84.40
66430;BME280;53242;51.694;10.006;2022-10-23T08:04:37;99531.63;;;13.06;84.27
66430;BME280;53242;51.694;10.006;2022-10-23T08:07:22;99539.31;;;13.21;83.72
66430;BME280;53242;51.694;10.006;2022-10-23T08:09:46;99527.09;;;13.20;83.96
66430;BME280;53242;51.694;10.006;2022-10-23T08:12:09;99525.78;;;13.36;83.36
66430;BME280;53242;51.694;10.006;2022-10-23T08:14:31;99522.34;;;13.42;83.01
66430;BME280;53242;51.694;10.006;2022-10-23T08:16:54;99512.25;;;13.58;82.46
66430;BME280;53242;51.694;10.006;2022-10-23T08:19:36;99506.47;;;13.68;82.05
66430;BME280;53242;51.694;10.006;2022-10-23T08:21:58;99498.03;;;13.77;81.38
66430;BME280;53242;51.694;10.006;2022-10-23T08:24:21;99500.31;;;13.74;81.83
66430;BME280;53242;51.694;10.006;2022-10-23T08:26:44;99495.66;;;13.69;81.65
66430;BME280;53242;51.694;10.006;2022-10-23T08:29:08;99491.16;;;13.70;81.97
66430;BME280;53242;51.694;10.006;2022-10-23T08:31:31;99487.56;;;13.57;82.52
66430;BME280;53242;51.694;10.006;2022-10-23T08:34:12;99482.91;;;13.78;81.70
66430;BME280;53242;51.694;10.006;2022-10-23T08:36:35;99481.72;;;13.74;82.02
66430;BME280;53242;51.694;10.006;2022-10-23T08:38:58;99476.00;;;13.77;81.80
66430;BME280;53242;51.694;10.006;2022-10-23T08:41:28;99481.25;;;13.84;81.66
66430;BME280;53242;51.694;10.006;2022-10-23T08:44:02;99494.09;;;13.55;82.36
66430;BME280;53242;51.694;10.006;2022-10-23T08:46:37;99493.19;;;13.68;82.18
66430;BME280;53242;51.694;10.006;2022-10-23T08:49:46;99496.72;;;13.61;82.12
66430;BME280;53242;51.694;10.006;2022-10-23T08:52:16;99491.72;;;13.78;81.70
66430;BME280;53242;51.694;10.006;2022-10-23T08:57:26;99493.00;;;13.69;81.85
66430;BME280;53242;51.694;10.006;2022-10-23T09:00:00;99487.44;;;13.77;81.93
66430;BME280;53242;51.694;10.006;2022-10-23T09:02:33;99484.31;;;13.87;81.78
66430;BME280;53242;51.694;10.006;2022-10-23T09:04:57;99479.75;;;13.94;81.58
66430;BME280;53242;51.694;10.006;2022-10-23T09:07:26;99476.75;;;14.09;80.79
66430;BME280;53242;51.694;10.006;2022-10-23T09:12:37;99474.50;;;14.13;80.74
66430;BME280;53242;51.694;10.006;2022-10-23T09:15:12;99468.66;;;14.23;80.55
66430;BME280;53242;51.694;10.006;2022-10-23T09:17:38;99463.75;;;14.26;80.27
66430;BME280;53242;51.694;10.006;2022-10-23T09:20:25;99477.66;;;14.22;80.61
66430;BME280;53242;51.694;10.006;2022-10-23T09:22:54;99479.97;;;14.37;80.41
66430;BME280;53242;51.694;10.006;2022-10-23T09:25:21;99484.03;;;14.39;80.44
66430;BME280;53242;51.694;10.006;2022-10-23T09:27:48;99494.13;;;14.30;80.08
66430;BME280;53242;51.694;10.006;2022-10-23T09:30:12;99492.81;;;14.40;80.22
66430;BME280;53242;51.694;10.006;2022-10-23T09:32:45;99489.72;;;14.43;80.29
66430;BME280;53242;51.694;10.006;2022-10-23T09:35:20;99483.72;;;14.47;80.03
66430;BME280;53242;51.694;10.006;2022-10-23T09:37:46;99479.31;;;14.41;80.14
66430;BME280;53242;51.694;10.006;2022-10-23T09:40:45;99474.31;;;14.52;80.10
66430;BME280;53242;51.694;10.006;2022-10-23T09:43:18;99471.47;;;14.72;79.43
66430;BME280;53242;51.694;10.006;2022-10-23T09:45:43;99471.91;;;14.69;79.40
66430;BME280;53242;51.694;10.006;2022-10-23T09:48:16;99465.25;;;14.78;79.40
66430;BME280;53242;51.694;10.006;2022-10-23T09:51:00;99458.75;;;14.92;78.94
66430;BME280;53242;51.694;10.006;2022-10-23T09:53:39;99471.66;;;14.89;78.71
66430;BME280;53242;51.694;10.006;2022-10-23T09:56:25;99462.50;;;15.03;78.38
66430;BME280;53242;51.694;10.006;2022-10-23T09:59:02;99459.16;;;15.08;78.33
66430;BME280;53242;51.694;10.006;2022-10-23T10:01:28;99453.84;;;15.08;78.85
66430;BME280;53242;51.694;10.006;2022-10-23T10:04:02;99443.91;;;15.03;78.72
66430;BME280;53242;51.694;10.006;2022-10-23T10:06:30;99444.09;;;15.02;78.73
66430;BME280;53242;51.694;10.006;2022-10-23T10:08:56;99448.53;;;15.08;78.86
66430;BME280;53242;51.694;10.006;2022-10-23T10:16:50;99443.13;;;15.15;78.98
66430;BME280;53242;51.694;10.006;2022-10-23T10:22:52;99433.72;;;15.31;78.58
66430;BME280;53242;51.694;10.006;2022-10-23T10:31:01;99421.97;;;15.62;77.47
66430;BME280;53242;51.694;10.006;2022-10-23T10:33:36;99426.50;;;15.73;77.17
66430;BME280;53242;51.694;10.006;2022-10-23T10:36:22;99429.44;;;15.84;77.08
66430;BME280;53242;51.694;10.006;2022-10-23T10:38:52;99417.28;;;15.88;76.68
66430;BME280;53242;51.694;10.006;2022-10-23T10:46:48;99410.78;;;15.95;76.26
66430;BME280;53242;51.694;10.006;2022-10-23T10:49:21;99403.88;;;16.06;76.22
66430;BME280;53242;51.694;10.006;2022-10-23T10:52:17;99406.31;;;15.84;76.99
66430;BME280;53242;51.694;10.006;2022-10-23T10:55:15;99398.44;;;15.89;76.91
66430;BME280;53242;51.694;10.006;2022-10-23T10:57:41;99398.56;;;15.94;76.74
66430;BME280;53242;51.694;10.006;2022-10-23T11:00:19;99396.91;;;16.05;76.77
66430;BME280;53242;51.694;10.006;2022-10-23T11:03:01;99401.53;;;16.22;76.52
66430;BME280;53242;51.694;10.006;2022-10-23T11:05:30;99396.75;;;16.24;76.51
66430;BME280;53242;51.694;10.006;2022-10-23T11:08:18;99393.94;;;16.54;75.63
66430;BME280;53242;51.694;10.006;2022-10-23T11:10:51;99393.78;;;16.61;75.56
66430;BME280;53242;51.694;10.006;2022-10-23T11:13:36;99383.44;;;16.76;74.95
66430;BME280;53242;51.694;10.006;2022-10-23T11:16:12;99373.81;;;16.75;75.14
66430;BME280;53242;51.694;10.006;2022-10-23T11:18:36;99377.47;;;16.98;74.61
66430;BME280;53242;51.694;10.006;2022-10-23T11:21:25;99366.94;;;16.91;73.90
66430;BME280;53242;51.694;10.006;2022-10-23T11:26:54;99348.94;;;16.99;74.57
66430;BME280;53242;51.694;10.006;2022-10-23T11:32:13;99349.19;;;16.97;74.84
66430;BME280;53242;51.694;10.006;2022-10-23T11:37:17;99338.41;;;16.92;74.96
66430;BME280;53242;51.694;10.006;2022-10-23T11:39:57;99335.94;;;17.02;74.55
66430;BME280;53242;51.694;10.006;2022-10-23T11:42:46;99318.22;;;16.96;73.98
66430;BME280;53242;51.694;10.006;2022-10-23T11:45:31;99320.59;;;16.81;73.83
66430;BME280;53242;51.694;10.006;2022-10-23T11:50:55;99323.84;;;16.83;73.72
66430;BME280;53242;51.694;10.006;2022-10-23T11:58:45;99313.03;;;16.89;73.65
66430;BME280;53242;51.694;10.006;2022-10-23T12:04:04;99299.91;;;17.00;73.41
66430;BME280;53242;51.694;10.006;2022-10-23T12:06:44;99286.03;;;16.98;73.34
66430;BME280;53242;51.694;10.006;2022-10-23T12:09:22;99285.03;;;17.04;73.47
66430;BME280;53242;51.694;10.006;2022-10-23T12:11:47;99284.66;;;16.95;74.26
66430;BME280;53242;51.694;10.006;2022-10-23T12:14:38;99289.56;;;17.03;73.57
66430;BME280;53242;51.694;10.006;2022-10-23T12:17:21;99276.16;;;17.15;73.48
66430;BME280;53242;51.694;10.006;2022-10-23T12:19:54;99280.69;;;16.98;73.98
66430;BME280;53242;51.694;10.006;2022-10-23T12:22:18;99268.94;;;16.99;74.17
66430;BME280;53242;51.694;10.006;2022-10-23T12:25:03;99259.91;;;17.00;73.67
66430;BME280;53242;51.694;10.006;2022-10-23T12:27:38;99255.94;;;17.02;73.72
66430;BME280;53242;51.694;10.006;2022-10-23T12:30:21;99251.13;;;16.99;73.75
66430;BME280;53242;51.694;10.006;2022-10-23T12:35:52;99235.97;;;16.88;73.96
66430;BME280;53242;51.694;10.006;2022-10-23T12:38:23;99239.00;;;16.91;74.44
66430;BME280;53242;51.694;10.006;2022-10-23T12:40:55;99233.31;;;16.88;74.64
66430;BME280;53242;51.694;10.006;2022-10-23T12:43:27;99225.25;;;17.00;74.21
66430;BME280;53242;51.694;10.006;2022-10-23T12:45:51;99233.88;;;16.90;74.89
66430;BME280;53242;51.694;10.006;2022-10-23T12:48:20;99227.19;;;16.87;74.51
66430;BME280;53242;51.694;10.006;2022-10-23T12:50:47;99234.00;;;16.95;74.49
66430;BME280;53242;51.694;10.006;2022-10-23T12:53:16;99240.84;;;16.91;74.54
66430;BME280;53242;51.694;10.006;2022-10-23T12:55:52;99235.28;;;16.92;74.08
66430;BME280;53242;51.694;10.006;2022-10-23T12:58:22;99240.69;;;16.98;74.33
66430;BME280;53242;51.694;10.006;2022-10-23T13:00:53;99247.94;;;17.02;74.42
66430;BME280;53242;51.694;10.006;2022-10-23T13:03:16;99235.38;;;16.98;74.23
66430;BME280;53242;51.694;10.006;2022-10-23T13:05:38;99227.19;;;17.04;74.20
66430;BME280;53242;51.694;10.006;2022-10-23T13:08:01;99213.03;;;17.04;73.83
66430;BME280;53242;51.694;10.006;2022-10-23T13:10:37;99209.66;;;17.08;73.92
66430;BME280;53242;51.694;10.006;2022-10-23T13:13:04;99201.66;;;17.08;73.54
66430;BME280;53242;51.694;10.006;2022-10-23T13:15:37;99201.09;;;17.06;73.18
66430;BME280;53242;51.694;10.006;2022-10-23T13:18:01;99201.16;;;17.12;73.33
66430;BME280;53242;51.694;10.006;2022-10-23T13:25:55;99202.31;;;16.99;74.45
66430;BME280;53242;51.694;10.006;2022-10-23T13:28:26;99201.25;;;17.00;74.12
66430;BME280;53242;51.694;10.006;2022-10-23T13:34:04;99203.13;;;16.99;74.22
66430;BME280;53242;51.694;10.006;2022-10-23T13:36:22;99195.38;;;16.98;74.28
66430;BME280;53242;51.694;10.006;2022-10-23T13:41:37;99182.19;;;16.91;73.85
66430;BME280;53242;51.694;10.006;2022-10-23T13:44:00;99181.03;;;16.87;74.50
66430;BME280;53242;51.694;10.006;2022-10-23T13:46:23;99161.84;;;16.85;74.56
66430;BME280;53242;51.694;10.006;2022-10-23T13:48:47;99174.09;;;16.69;75.01
66430;BME280;53242;51.694;10.006;2022-10-23T13:51:19;99167.00;;;16.74;74.97
66430;BME280;53242;51.694;10.006;2022-10-23T13:53:42;99178.81;;;16.62;75.38
66430;BME280;53242;51.694;10.006;2022-10-23T13:56:04;99179.34;;;16.64;75.49
66430;BME280;53242;51.694;10.006;2022-10-23T13:58:27;99176.22;;;16.67;75.50
66430;BME280;53242;51.694;10.006;2022-10-23T14:00:49;99155.38;;;16.64;75.45
66430;BME280;53242;51.694;10.006;2022-10-23T14:03:12;99137.56;;;16.64;75.57
66430;BME280;53242;51.694;10.006;2022-10-23T14:05:34;99132.94;;;16.59;75.79
66430;BME280;53242;51.694;10.006;2022-10-23T14:07:57;99121.00;;;16.62;75.80
66430;BME280;53242;51.694;10.006;2022-10-23T14:10:19;99119.13;;;16.63;76.02
66430;BME280;53242;51.694;10.006;2022-10-23T14:12:42;99127.38;;;16.61;75.97
66430;BME280;53242;51.694;10.006;2022-10-23T14:15:06;99120.03;;;16.51;76.36